Time;durP1;ratioP1;P1;durP2;ratioP2;P2;SDS_P1;SDS_P2;PMS_P1;PMS_P2;Temp;Humidity;BMP_temperature;BMP_pressure;BME280_temperature;BME280_humidity;BME280_pressure;Samples;Min_cycle;Max_cycle;Signal;HPM_P1;HPM_P2
2023/01/27 00:01:54;;;;;;;36.80;11.63;;;;;0.70;96309.00;;;;8299109;28;20224;-76
2023/01/27 00:06:00;;;;;;;42.27;11.97;;;;;0.70;96314.00;;;;8298747;28;20202;-74
2023/01/27 00:10:04;;;;;;;40.37;12.63;;;;;0.80;96306.00;;;;8299369;28;20690;-75
2023/01/27 00:14:08;;;;;;;40.97;12.20;;;;;0.80;96308.00;;;;8298943;28;20271;-74
2023/01/27 00:18:16;;;;;;;33.37;11.10;;;;;0.70;96303.00;;;;8298373;28;20649;-75
2023/01/27 00:26:47;;;;;;;34.50;11.23;;;;;0.70;96303.00;;;;8298826;28;20196;-75
2023/01/27 00:30:51;;;;;;;42.40;11.40;;;;;0.70;96297.00;;;;8298686;28;20303;-75
2023/01/27 00:34:58;;;;;;;41.57;11.90;;;;;0.70;96311.00;;;;8298654;28;20211;-74
2023/01/27 00:39:04;;;;;;;36.43;10.90;;;;;0.80;96301.00;;;;8298633;28;20195;-74
2023/01/27 00:43:09;;;;;;;38.53;11.97;;;;;0.80;96307.00;;;;8297886;28;20251;-74
2023/01/27 00:47:15;;;;;;;43.40;12.83;;;;;0.80;96306.00;;;;8298876;28;20195;-74
2023/01/27 00:51:24;;;;;;;39.93;12.17;;;;;0.70;96311.00;;;;8298535;28;20230;-73
2023/01/27 00:55:29;;;;;;;49.97;13.83;;;;;0.70;96306.00;;;;8298399;28;20248;-74
2023/01/27 00:59:32;;;;;;;39.23;12.47;;;;;0.80;96315.00;;;;8297344;28;20257;-73
2023/01/27 01:03:46;;;;;;;42.47;11.87;;;;;0.80;96313.00;;;;8296742;28;20673;-73
2023/01/27 01:07:49;;;;;;;35.97;11.13;;;;;0.80;96313.00;;;;8303861;28;20575;-73
2023/01/27 01:11:55;;;;;;;43.23;12.63;;;;;0.80;96318.00;;;;8302232;28;20223;-72
2023/01/27 01:16:04;;;;;;;46.50;13.50;;;;;0.80;96319.00;;;;8303849;28;20660;-72
2023/01/27 01:20:10;;;;;;;33.00;9.90;;;;;0.80;96327.00;;;;8303704;28;20691;-73
2023/01/27 01:24:17;;;;;;;52.63;12.97;;;;;0.70;96318.00;;;;8301506;28;20191;-72
2023/01/27 01:28:22;;;;;;;40.03;12.67;;;;;0.80;96325.00;;;;8303982;28;20240;-72
2023/01/27 01:32:36;;;;;;;48.70;13.07;;;;;0.80;96326.00;;;;8303289;28;20223;-72
2023/01/27 01:36:41;;;;;;;53.27;12.83;;;;;0.80;96330.00;;;;8302537;28;20695;-72
2023/01/27 01:40:44;;;;;;;51.60;14.87;;;;;0.80;96323.00;;;;8303071;28;20200;-72
2023/01/27 01:45:14;;;;;;;52.07;14.83;;;;;0.80;96315.00;;;;8302799;28;20283;-71
2023/01/27 01:49:23;;;;;;;60.83;15.07;;;;;0.80;96323.00;;;;8300998;28;20636;-71
2023/01/27 01:53:33;;;;;;;54.53;14.93;;;;;0.80;96315.00;;;;8300490;28;20255;-71
2023/01/27 01:57:41;;;;;;;60.87;14.07;;;;;0.80;96316.00;;;;8300396;28;20594;-71
2023/01/27 02:01:50;;;;;;;60.10;16.03;;;;;0.80;96309.00;;;;8302186;28;20230;-72
2023/01/27 02:05:56;;;;;;;55.93;15.50;;;;;0.80;96312.00;;;;8301999;28;20221;-72
2023/01/27 02:10:03;;;;;;;57.70;15.60;;;;;0.80;96308.00;;;;8302766;28;20320;-71
2023/01/27 02:14:10;;;;;;;44.80;13.07;;;;;0.80;96308.00;;;;8302020;28;20583;-71
2023/01/27 02:18:15;;;;;;;57.00;15.83;;;;;0.80;96307.00;;;;8302308;28;20196;-71
2023/01/27 02:22:29;;;;;;;57.90;15.50;;;;;0.80;96313.00;;;;8301033;28;20196;-71
2023/01/27 02:26:36;;;;;;;51.80;14.80;;;;;0.80;96317.00;;;;8301005;28;20207;-71
2023/01/27 02:30:40;;;;;;;57.33;16.53;;;;;0.80;96309.00;;;;8301543;28;20270;-71
2023/01/27 02:34:43;;;;;;;60.83;16.27;;;;;0.80;96309.00;;;;8301152;28;20200;-70
2023/01/27 02:38:49;;;;;;;61.80;16.30;;;;;0.80;96293.00;;;;8300410;28;20198;-70
2023/01/27 02:42:55;;;;;;;64.63;18.10;;;;;0.80;96303.00;;;;8301139;28;20194;-70
2023/01/27 02:46:59;;;;;;;59.87;15.73;;;;;0.80;96297.00;;;;8301258;28;20244;-70
2023/01/27 02:51:10;;;;;;;55.67;15.53;;;;;0.80;96292.00;;;;8300894;28;20211;-71
2023/01/27 02:55:21;;;;;;;58.97;16.17;;;;;0.80;96292.00;;;;8301762;28;20643;-71
2023/01/27 02:59:27;;;;;;;68.40;17.30;;;;;0.80;96290.00;;;;8299660;28;20640;-70
2023/01/27 03:03:34;;;;;;;56.37;16.77;;;;;0.70;96287.00;;;;8336835;22;20231;-73
2023/01/27 03:07:37;;;;;;;53.90;15.90;;;;;0.70;96298.00;;;;8278617;28;20222;-74
2023/01/27 03:20:25;;;;;;;58.60;16.73;;;;;0.60;96307.00;;;;8278436;28;20199;-76
2023/01/27 03:24:28;;;;;;;54.50;15.60;;;;;0.70;96297.00;;;;8284406;28;20196;-71
2023/01/27 03:28:33;;;;;;;62.70;17.00;;;;;0.70;96296.00;;;;8277134;28;20735;-73
2023/01/27 03:32:45;;;;;;;72.17;18.23;;;;;0.70;96296.00;;;;8266546;28;20293;-74
2023/01/27 03:49:54;;;;;;;64.87;16.40;;;;;0.80;96295.00;;;;8282582;28;20638;-75
2023/01/27 03:58:21;;;;;;;71.97;19.47;;;;;0.80;96286.00;;;;8282973;28;20211;-70
2023/01/27 04:06:56;;;;;;;61.50;17.93;;;;;0.70;96284.00;;;;8273450;28;20928;-75
2023/01/27 04:15:47;;;;;;;66.60;16.90;;;;;0.70;96281.00;;;;8201817;28;20201;-75
2023/01/27 04:19:52;;;;;;;62.87;16.83;;;;;0.70;96276.00;;;;8240103;28;20199;-71
2023/01/27 04:23:57;;;;;;;74.43;17.93;;;;;0.70;96280.00;;;;8275350;28;20206;-72
2023/01/27 04:28:06;;;;;;;62.03;17.00;;;;;0.70;96273.00;;;;8274660;28;20208;-73
2023/01/27 04:32:10;;;;;;;61.30;17.63;;;;;0.80;96277.00;;;;8274765;28;20230;-77
2023/01/27 04:36:14;;;;;;;61.30;15.90;;;;;0.80;96287.00;;;;8271612;28;20611;-74
2023/01/27 04:40:20;;;;;;;61.67;16.80;;;;;0.80;96284.00;;;;8273789;28;20204;-72
2023/01/27 04:44:24;;;;;;;73.10;17.73;;;;;0.80;96295.00;;;;8283231;28;20211;-72
2023/01/27 04:48:30;;;;;;;68.53;17.67;;;;;0.90;96291.00;;;;8283294;28;20289;-77
2023/01/27 04:52:33;;;;;;;69.30;18.57;;;;;0.90;96300.00;;;;8274659;28;20239;-78
2023/01/27 04:56:44;;;;;;;75.97;18.20;;;;;0.90;96300.00;;;;8280950;28;20286;-76
2023/01/27 05:00:50;;;;;;;68.83;18.63;;;;;0.90;96299.00;;;;8276606;28;20199;-79
2023/01/27 05:04:55;;;;;;;73.07;18.43;;;;;0.90;96307.00;;;;8277848;28;20699;-78
2023/01/27 05:08:58;;;;;;;71.70;18.77;;;;;0.90;96304.00;;;;8280609;28;20236;-77
2023/01/27 05:13:03;;;;;;;66.17;17.37;;;;;1.00;96315.00;;;;8282323;28;20231;-78
2023/01/27 05:17:09;;;;;;;74.73;18.87;;;;;1.00;96311.00;;;;8278899;28;20206;-78
2023/01/27 05:21:15;;;;;;;55.63;16.10;;;;;1.00;96315.00;;;;8283228;28;20668;-82
2023/01/27 05:25:18;;;;;;;76.37;18.37;;;;;1.00;96322.00;;;;8278109;28;20308;-77
2023/01/27 05:29:25;;;;;;;59.67;17.93;;;;;0.90;96331.00;;;;8275380;28;20200;-81
2023/01/27 05:33:28;;;;;;;62.97;18.37;;;;;0.90;96338.00;;;;8279806;28;20224;-79
2023/01/27 05:37:34;;;;;;;60.50;19.47;;;;;1.00;96330.00;;;;8283246;28;20234;-79
2023/01/27 05:41:40;;;;;;;59.23;16.00;;;;;1.00;96347.00;;;;8280373;28;20203;-81
2023/01/27 05:45:47;;;;;;;62.23;17.33;;;;;0.90;96345.00;;;;8278877;28;20214;-76
2023/01/27 05:49:50;;;;;;;51.60;15.20;;;;;0.90;96356.00;;;;8272652;28;20267;-83
2023/01/27 05:53:58;;;;;;;64.93;17.20;;;;;0.80;96339.00;;;;8266231;28;20226;-78
2023/01/27 05:58:02;;;;;;;56.57;16.23;;;;;0.90;96345.00;;;;8273359;28;20645;-80
2023/01/27 06:02:09;;;;;;;48.83;16.17;;;;;0.90;96339.00;;;;8270836;28;20235;-80
2023/01/27 06:06:13;;;;;;;61.37;17.67;;;;;0.90;96355.00;;;;8282842;28;20202;-79
2023/01/27 06:10:17;;;;;;;56.17;17.43;;;;;0.90;96351.00;;;;8281681;28;20207;-77
2023/01/27 06:14:22;;;;;;;63.33;18.77;;;;;0.80;96348.00;;;;8282950;28;20239;-79
2023/01/27 06:18:27;;;;;;;57.47;17.37;;;;;0.90;96350.00;;;;8275754;28;20250;-80
2023/01/27 06:22:30;;;;;;;59.83;17.20;;;;;0.90;96362.00;;;;8275877;28;20841;-78
2023/01/27 06:26:33;;;;;;;52.63;17.20;;;;;0.90;96373.00;;;;8280165;28;20263;-77
2023/01/27 06:30:40;;;;;;;49.93;17.03;;;;;0.90;96375.00;;;;8276253;28;20207;-79
2023/01/27 06:34:48;;;;;;;57.93;16.20;;;;;0.80;96379.00;;;;8271743;28;20230;-77
2023/01/27 06:38:55;;;;;;;46.47;13.97;;;;;0.80;96372.00;;;;8281653;28;20208;-80
2023/01/27 06:43:11;;;;;;;46.57;14.33;;;;;0.80;96379.00;;;;8277368;28;20199;-76
2023/01/27 06:47:17;;;;;;;66.17;18.13;;;;;0.80;96378.00;;;;8279786;28;20230;-80
2023/01/27 06:51:21;;;;;;;57.33;17.80;;;;;0.80;96377.00;;;;8275462;28;20282;-80
2023/01/27 06:55:24;;;;;;;58.47;16.83;;;;;0.80;96383.00;;;;8265906;28;20556;-77
2023/01/27 06:59:29;;;;;;;57.20;17.13;;;;;0.80;96374.00;;;;8280126;28;20617;-80
2023/01/27 07:03:32;;;;;;;60.70;17.90;;;;;0.80;96393.00;;;;8271720;28;20226;-81
2023/01/27 07:07:39;;;;;;;59.33;18.70;;;;;0.80;96392.00;;;;8274111;28;20208;-81
2023/01/27 07:11:43;;;;;;;56.23;17.40;;;;;0.80;96387.00;;;;8277255;28;20911;-76
2023/01/27 07:15:47;;;;;;;50.47;15.13;;;;;0.80;96387.00;;;;8277431;28;20273;-79
2023/01/27 07:19:50;;;;;;;57.77;16.43;;;;;0.90;96388.00;;;;8270441;28;20204;-77
2023/01/27 07:23:56;;;;;;;51.70;17.40;;;;;0.90;96390.00;;;;8272518;28;21686;-78
2023/01/27 07:28:02;;;;;;;59.73;19.23;;;;;0.90;96398.00;;;;8274991;28;20200;-76
2023/01/27 07:32:09;;;;;;;51.50;16.23;;;;;0.90;96401.00;;;;8277583;28;20243;-78
2023/01/27 07:36:12;;;;;;;51.23;16.60;;;;;1.00;96398.00;;;;8269286;28;20224;-71
2023/01/27 07:40:17;;;;;;;51.13;17.93;;;;;1.00;96386.00;;;;8277427;28;20211;-74
2023/01/27 07:44:24;;;;;;;54.43;17.00;;;;;1.10;96392.00;;;;8274441;28;20214;-71
2023/01/27 07:48:30;;;;;;;56.87;17.30;;;;;1.10;96391.00;;;;8279070;28;20816;-72
2023/01/27 07:52:33;;;;;;;56.50;18.53;;;;;1.10;96385.00;;;;8272257;28;20280;-75
2023/01/27 07:56:45;;;;;;;52.33;16.90;;;;;1.10;96397.00;;;;8270623;28;20242;-76
2023/01/27 08:01:05;;;;;;;45.07;14.37;;;;;1.20;96384.00;;;;8269954;28;20227;-73
2023/01/27 08:05:10;;;;;;;54.53;17.10;;;;;1.10;96390.00;;;;8266432;28;20219;-71
2023/01/27 08:09:13;;;;;;;34.20;11.57;;;;;1.20;96404.00;;;;8273089;28;20202;-76
2023/01/27 08:13:21;;;;;;;50.40;16.03;;;;;1.20;96401.00;;;;8277727;28;20238;-74
2023/01/27 08:17:29;;;;;;;50.37;16.57;;;;;1.30;96389.00;;;;8273964;28;20302;-76
2023/01/27 08:21:36;;;;;;;31.23;12.30;;;;;1.30;96391.00;;;;8275569;28;20210;-72
2023/01/27 08:25:49;;;;;;;51.30;15.97;;;;;1.40;96402.00;;;;8277517;28;20198;-72
2023/01/27 08:29:55;;;;;;;28.87;10.53;;;;;1.50;96400.00;;;;8272232;28;20648;-74
2023/01/27 08:34:00;;;;;;;40.30;13.83;;;;;1.50;96405.00;;;;8275591;28;20627;-74
2023/01/27 08:38:05;;;;;;;46.80;16.30;;;;;1.50;96421.00;;;;8275691;28;20583;-73
2023/01/27 08:42:11;;;;;;;31.57;13.10;;;;;1.60;96425.00;;;;8274858;28;20676;-74
2023/01/27 08:46:16;;;;;;;42.60;14.57;;;;;1.50;96425.00;;;;8267362;28;20302;-75
2023/01/27 08:50:20;;;;;;;43.60;16.10;;;;;1.60;96420.00;;;;8278136;28;20237;-74
2023/01/27 08:54:25;;;;;;;35.37;13.07;;;;;1.60;96428.00;;;;8271926;28;20231;-74
2023/01/27 08:58:34;;;;;;;34.97;12.97;;;;;1.60;96440.00;;;;8271716;28;20587;-72
2023/01/27 09:02:42;;;;;;;38.83;15.13;;;;;1.60;96431.00;;;;8275762;28;20236;-71
2023/01/27 09:06:49;;;;;;;44.40;14.47;;;;;1.70;96433.00;;;;8270041;28;20197;-75
2023/01/27 09:10:52;;;;;;;34.30;13.37;;;;;1.80;96431.00;;;;8274337;28;20212;-72
2023/01/27 09:14:57;;;;;;;29.33;11.90;;;;;1.90;96435.00;;;;8277658;28;20257;-73
2023/01/27 09:19:04;;;;;;;37.00;12.63;;;;;1.90;96440.00;;;;8272385;28;20199;-73
2023/01/27 09:23:07;;;;;;;37.40;13.53;;;;;2.00;96444.00;;;;8279357;28;20607;-74
2023/01/27 09:27:14;;;;;;;34.67;12.47;;;;;2.00;96441.00;;;;8275282;28;20231;-77
2023/01/27 09:31:17;;;;;;;28.13;10.33;;;;;2.00;96448.00;;;;8279971;28;20212;-76
2023/01/27 09:35:30;;;;;;;35.83;12.83;;;;;2.00;96455.00;;;;8278534;28;20899;-74
2023/01/27 09:39:37;;;;;;;34.83;13.27;;;;;2.10;96464.00;;;;8277295;28;20203;-72
2023/01/27 09:44:21;;;;;;;34.87;12.93;;;;;2.20;96467.00;;;;8277529;28;20219;-75
2023/01/27 09:48:44;;;;;;;29.77;13.23;;;;;2.30;96476.00;;;;8266804;28;20209;-77
2023/01/27 09:53:03;;;;;;;30.67;13.53;;;;;2.20;96475.00;;;;8276617;28;20226;-77
2023/01/27 09:57:16;;;;;;;33.87;13.57;;;;;2.20;96479.00;;;;8276686;28;20212;-78
2023/01/27 10:01:33;;;;;;;34.38;14.68;;;;;2.10;96463.00;;;;8277295;28;20501;-77
2023/01/27 10:05:53;;;;;;;32.93;11.93;;;;;2.30;96472.00;;;;8274903;28;20838;-77
2023/01/27 10:10:15;;;;;;;27.83;11.20;;;;;2.20;96473.00;;;;8277647;28;20207;-77
2023/01/27 10:14:35;;;;;;;25.30;11.17;;;;;2.20;96474.00;;;;8275837;28;20224;-75
2023/01/27 10:18:50;;;;;;;30.83;12.90;;;;;2.30;96479.00;;;;8278088;28;20269;-72
2023/01/27 10:23:13;;;;;;;24.60;10.33;;;;;2.40;96485.00;;;;8273780;28;20204;-74
2023/01/27 10:27:22;;;;;;;30.87;13.03;;;;;2.30;96493.00;;;;8281224;28;20207;-72
2023/01/27 10:31:37;;;;;;;24.53;10.17;;;;;2.30;96493.00;;;;8275111;28;20198;-74
2023/01/27 10:35:49;;;;;;;28.67;12.23;;;;;2.20;96496.00;;;;8277766;28;20233;-74
2023/01/27 10:40:02;;;;;;;23.03;9.87;;;;;2.10;96496.00;;;;8276912;28;20656;-74
2023/01/27 10:44:24;;;;;;;21.97;9.50;;;;;2.10;96491.00;;;;8269057;28;20208;-76
2023/01/27 10:48:44;;;;;;;27.07;11.20;;;;;2.10;96473.00;;;;8268595;28;20205;-81
2023/01/27 10:53:00;;;;;;;23.53;9.77;;;;;2.10;96476.00;;;;8279316;28;20233;-77
2023/01/27 10:57:10;;;;;;;28.87;11.97;;;;;2.10;96480.00;;;;8278279;28;20219;-77
2023/01/27 11:01:25;;;;;;;27.50;10.67;;;;;2.10;96479.00;;;;8281234;28;20220;-74
2023/01/27 11:05:39;;;;;;;29.53;12.57;;;;;2.00;96484.00;;;;8283284;28;20313;-72
2023/01/27 11:09:48;;;;;;;25.00;10.83;;;;;2.00;96485.00;;;;8272396;28;20196;-72
2023/01/27 11:14:01;;;;;;;29.50;12.57;;;;;2.00;96477.00;;;;8273792;28;20262;-72
2023/01/27 11:18:16;;;;;;;32.00;12.87;;;;;2.00;96489.00;;;;8270204;28;20608;-73
2023/01/27 11:22:24;;;;;;;27.73;12.53;;;;;2.10;96469.00;;;;8267532;28;20252;-72
2023/01/27 11:26:38;;;;;;;31.93;11.90;;;;;2.20;96454.00;;;;8277206;28;20242;-69
2023/01/27 11:30:57;;;;;;;34.20;12.27;;;;;2.30;96455.00;;;;8276085;28;20238;-72
2023/01/27 11:35:05;;;;;;;24.17;11.40;;;;;2.40;96461.00;;;;8278713;28;20230;-70
2023/01/27 11:39:12;;;;;;;24.80;9.63;;;;;2.40;96453.00;;;;8273752;28;20311;-72
2023/01/27 11:43:17;;;;;;;29.43;11.50;;;;;2.30;96454.00;;;;8272232;28;20211;-71
2023/01/27 11:47:24;;;;;;;30.40;12.87;;;;;2.30;96455.00;;;;8273382;28;20700;-68
2023/01/27 11:51:41;;;;;;;31.47;14.33;;;;;2.30;96447.00;;;;8270672;28;20644;-76
2023/01/27 11:55:51;;;;;;;26.43;11.57;;;;;2.30;96449.00;;;;8270587;28;20236;-76
2023/01/27 12:00:00;;;;;;;28.67;11.57;;;;;2.30;96441.00;;;;8271723;28;20204;-74
2023/01/27 12:04:15;;;;;;;26.57;10.93;;;;;2.20;96447.00;;;;8277046;28;20568;-74
2023/01/27 12:08:38;;;;;;;24.80;10.60;;;;;2.10;96451.00;;;;8275047;28;20214;-74
2023/01/27 12:12:44;;;;;;;25.03;11.73;;;;;2.20;96456.00;;;;8267552;28;20689;-74
2023/01/27 12:16:52;;;;;;;25.53;10.20;;;;;2.10;96458.00;;;;8270915;28;20227;-75
2023/01/27 12:21:02;;;;;;;28.33;10.30;;;;;2.00;96447.00;;;;8270243;28;20204;-74
2023/01/27 12:25:16;;;;;;;20.87;9.27;;;;;2.00;96448.00;;;;8272159;28;20376;-74
2023/01/27 12:29:35;;;;;;;25.80;11.70;;;;;2.00;96437.00;;;;8268275;28;20214;-75
2023/01/27 12:33:50;;;;;;;25.40;10.97;;;;;2.10;96435.00;;;;8269271;28;20293;-73
2023/01/27 12:38:01;;;;;;;21.63;10.93;;;;;2.10;96433.00;;;;8270737;28;20208;-76
2023/01/27 12:42:06;;;;;;;21.63;9.67;;;;;2.20;96415.00;;;;8271459;28;20194;-75
2023/01/27 12:46:23;;;;;;;26.57;11.53;;;;;2.20;96411.00;;;;8280210;28;20267;-72
2023/01/27 12:50:29;;;;;;;22.97;10.87;;;;;2.10;96406.00;;;;8277219;28;20255;-74
2023/01/27 12:54:34;;;;;;;25.17;9.80;;;;;2.10;96415.00;;;;8279726;28;20272;-74
2023/01/27 12:58:46;;;;;;;20.17;9.53;;;;;2.20;96407.00;;;;8272678;28;20208;-71
2023/01/27 13:02:53;;;;;;;23.00;9.53;;;;;2.20;96406.00;;;;8281001;28;20229;-72
2023/01/27 13:07:03;;;;;;;24.30;10.37;;;;;2.20;96409.00;;;;8283362;28;20828;-72
2023/01/27 13:11:07;;;;;;;23.20;10.17;;;;;2.20;96412.00;;;;8286781;28;20209;-72
2023/01/27 13:15:18;;;;;;;21.77;9.60;;;;;2.20;96419.00;;;;8282902;28;20228;-71
2023/01/27 13:19:34;;;;;;;23.23;9.57;;;;;2.10;96416.00;;;;8284499;28;20213;-71
2023/01/27 13:23:44;;;;;;;22.03;9.07;;;;;2.10;96423.00;;;;8285666;28;20290;-72
2023/01/27 13:27:49;;;;;;;17.90;9.00;;;;;2.10;96423.00;;;;8286648;28;20214;-72
2023/01/27 13:31:58;;;;;;;22.07;9.30;;;;;2.00;96416.00;;;;8283981;28;21266;-70
2023/01/27 13:36:08;;;;;;;23.07;9.33;;;;;2.00;96429.00;;;;8285998;28;20245;-71
2023/01/27 13:40:18;;;;;;;19.13;9.60;;;;;2.00;96420.00;;;;8284073;28;20219;-73
2023/01/27 13:44:30;;;;;;;20.37;9.90;;;;;2.00;96422.00;;;;8282492;28;20203;-70
2023/01/27 13:48:42;;;;;;;20.00;9.33;;;;;2.00;96439.00;;;;8281256;28;20222;-72
2023/01/27 13:52:53;;;;;;;17.23;9.03;;;;;2.00;96445.00;;;;8276679;28;20301;-71
2023/01/27 13:57:28;;;;;;;17.83;8.40;;;;;1.90;96433.00;;;;8283391;28;20235;-71
2023/01/27 14:01:43;;;;;;;21.00;9.33;;;;;1.80;96437.00;;;;8267469;28;20210;-71
2023/01/27 14:06:08;;;;;;;18.70;9.03;;;;;1.90;96435.00;;;;8284429;28;20242;-72
2023/01/27 14:10:19;;;;;;;20.40;10.53;;;;;1.80;96438.00;;;;8274305;28;20225;-73
2023/01/27 14:14:45;;;;;;;19.77;8.73;;;;;1.80;96439.00;;;;8280070;28;20750;-73
2023/01/27 14:19:16;;;;;;;18.77;8.63;;;;;1.70;96445.00;;;;8276263;28;20258;-74
2023/01/27 14:23:35;;;;;;;17.33;9.47;;;;;1.80;96451.00;;;;8276080;28;20212;-73
2023/01/27 14:27:46;;;;;;;21.60;9.03;;;;;1.70;96459.00;;;;8274788;28;20214;-73
2023/01/27 14:31:59;;;;;;;19.10;9.10;;;;;1.80;96466.00;;;;8276398;28;20250;-73
2023/01/27 14:36:16;;;;;;;18.83;8.23;;;;;1.70;96460.00;;;;8274009;28;20235;-72
2023/01/27 14:40:27;;;;;;;23.53;9.93;;;;;1.70;96465.00;;;;8270332;28;20196;-73
2023/01/27 14:44:41;;;;;;;27.40;10.43;;;;;1.60;96462.00;;;;8277113;28;20204;-72
2023/01/27 14:49:08;;;;;;;27.23;10.97;;;;;1.70;96457.00;;;;8264246;28;20203;-76
2023/01/27 14:53:24;;;;;;;20.53;8.87;;;;;1.70;96467.00;;;;8278296;28;20320;-73
2023/01/27 14:57:37;;;;;;;22.20;9.80;;;;;1.60;96467.00;;;;8301022;28;20368;-75
2023/01/27 15:02:03;;;;;;;21.33;9.70;;;;;1.50;96468.00;;;;8300011;28;20266;-75
2023/01/27 15:06:13;;;;;;;18.27;8.63;;;;;1.60;96477.00;;;;8300418;28;20587;-74
2023/01/27 15:10:24;;;;;;;24.67;9.63;;;;;1.50;96477.00;;;;8298500;28;20187;-74
2023/01/27 15:14:59;;;;;;;25.57;10.50;;;;;1.50;96491.00;;;;8300042;28;20317;-75
2023/01/27 15:19:26;;;;;;;27.87;10.23;;;;;1.60;96478.00;;;;8297857;28;20194;-74
2023/01/27 15:23:53;;;;;;;23.73;9.37;;;;;1.60;96485.00;;;;8300977;28;20254;-75
2023/01/27 15:28:10;;;;;;;23.00;9.83;;;;;1.60;96483.00;;;;8299521;28;20187;-75
2023/01/27 15:32:28;;;;;;;23.13;9.73;;;;;1.60;96489.00;;;;8299155;28;20308;-75
2023/01/27 15:36:35;;;;;;;24.30;9.97;;;;;1.60;96483.00;;;;8300175;28;20219;-75
2023/01/27 15:41:06;;;;;;;28.67;10.87;;;;;1.50;96476.00;;;;8299450;28;20628;-75
2023/01/27 15:45:28;;;;;;;25.90;11.33;;;;;1.50;96488.00;;;;8300510;28;20182;-76
2023/01/27 15:49:37;;;;;;;23.67;10.00;;;;;1.50;96485.00;;;;8297149;28;20612;-74
2023/01/27 15:53:45;;;;;;;26.50;10.33;;;;;1.50;96480.00;;;;8295534;28;20201;-75
2023/01/27 15:57:54;;;;;;;18.63;9.67;;;;;1.50;96478.00;;;;8298936;28;20219;-76
2023/01/27 16:02:17;;;;;;;21.10;9.47;;;;;1.50;96483.00;;;;8298157;28;20188;-77
2023/01/27 16:06:28;;;;;;;22.10;9.97;;;;;1.50;96472.00;;;;8298919;28;20196;-75
2023/01/27 16:10:36;;;;;;;23.77;10.60;;;;;1.50;96496.00;;;;8299319;28;20259;-75
2023/01/27 16:14:45;;;;;;;21.20;9.93;;;;;1.50;96502.00;;;;8299200;28;20267;-75
2023/01/27 16:18:58;;;;;;;20.33;9.50;;;;;1.50;96502.00;;;;8298623;28;20207;-71
2023/01/27 16:23:11;;;;;;;16.40;7.67;;;;;1.50;96503.00;;;;8297356;28;20204;-75
2023/01/27 16:27:32;;;;;;;18.40;9.30;;;;;1.40;96515.00;;;;8298450;28;20191;-74
2023/01/27 16:31:38;;;;;;;17.97;9.10;;;;;1.40;96514.00;;;;8298119;28;20206;-72
2023/01/27 16:35:46;;;;;;;23.83;9.43;;;;;1.30;96514.00;;;;8299415;28;20236;-72
2023/01/27 16:39:59;;;;;;;19.20;9.13;;;;;1.30;96513.00;;;;8304660;28;20717;-74
2023/01/27 16:44:14;;;;;;;16.77;8.17;;;;;1.40;96519.00;;;;8304799;28;20282;-74
2023/01/27 16:48:26;;;;;;;22.87;9.60;;;;;1.40;96521.00;;;;8305295;28;20694;-74
2023/01/27 16:52:34;;;;;;;21.10;9.40;;;;;1.30;96522.00;;;;8304553;28;20197;-74
2023/01/27 16:56:50;;;;;;;20.63;9.23;;;;;1.30;96523.00;;;;8304626;28;20206;-74
2023/01/27 17:00:56;;;;;;;42.33;13.90;;;;;1.30;96520.00;;;;8304106;28;20246;-75
2023/01/27 17:05:14;;;;;;;20.37;9.00;;;;;1.30;96532.00;;;;8303788;28;20232;-74
2023/01/27 17:09:22;;;;;;;21.03;9.57;;;;;1.30;96534.00;;;;8303239;28;20198;-74
2023/01/27 17:13:30;;;;;;;18.57;8.00;;;;;1.30;96525.00;;;;8304135;28;20196;-74
2023/01/27 17:17:39;;;;;;;19.37;8.40;;;;;1.20;96542.00;;;;8303191;28;20233;-73
2023/01/27 17:21:49;;;;;;;21.87;9.30;;;;;1.20;96541.00;;;;8304154;28;20200;-73
2023/01/27 17:25:52;;;;;;;19.37;8.57;;;;;1.10;96544.00;;;;8303953;28;20593;-76
2023/01/27 17:30:08;;;;;;;21.13;9.83;;;;;1.10;96545.00;;;;8302715;28;20185;-76
2023/01/27 17:34:18;;;;;;;15.00;7.77;;;;;1.10;96547.00;;;;8303049;28;20186;-76
2023/01/27 17:38:23;;;;;;;20.07;8.57;;;;;1.10;96553.00;;;;8303509;28;20216;-74
2023/01/27 17:42:31;;;;;;;23.40;10.37;;;;;1.10;96555.00;;;;8302515;28;20575;-74
2023/01/27 17:46:35;;;;;;;18.37;8.90;;;;;1.10;96559.00;;;;8302160;28;20637;-74
2023/01/27 17:50:41;;;;;;;18.57;8.73;;;;;1.00;96569.00;;;;8302651;28;20246;-74
2023/01/27 17:54:46;;;;;;;22.00;9.20;;;;;1.00;96551.00;;;;8302655;28;20252;-74
2023/01/27 17:58:53;;;;;;;24.23;9.70;;;;;1.10;96567.00;;;;8301791;28;20249;-74
2023/01/27 18:03:03;;;;;;;22.37;9.40;;;;;1.10;96563.00;;;;8302718;28;20231;-74
2023/01/27 18:07:09;;;;;;;23.50;10.37;;;;;1.10;96569.00;;;;8302090;28;20582;-74
2023/01/27 18:11:22;;;;;;;21.43;9.10;;;;;1.10;96578.00;;;;8303156;28;20185;-74
2023/01/27 18:15:37;;;;;;;25.57;10.73;;;;;1.10;96579.00;;;;8301548;28;20257;-74
2023/01/27 18:19:50;;;;;;;27.27;11.33;;;;;1.10;96583.00;;;;8302268;28;20248;-74
2023/01/27 18:23:55;;;;;;;21.10;9.70;;;;;1.10;96571.00;;;;8301800;28;20227;-74
2023/01/27 18:27:59;;;;;;;25.83;9.53;;;;;1.10;96585.00;;;;8302469;28;20203;-74
2023/01/27 18:32:15;;;;;;;28.60;11.83;;;;;1.00;96581.00;;;;8301108;28;20435;-74
2023/01/27 18:36:32;;;;;;;25.40;11.13;;;;;1.00;96581.00;;;;8300418;28;20232;-75
2023/01/27 18:40:38;;;;;;;24.43;9.67;;;;;1.00;96582.00;;;;8301802;28;20191;-76
2023/01/27 18:44:41;;;;;;;28.67;10.03;;;;;1.10;96586.00;;;;8301763;28;20547;-76
2023/01/27 18:48:45;;;;;;;27.53;11.27;;;;;1.10;96582.00;;;;8301983;28;20204;-72
2023/01/27 18:52:50;;;;;;;31.13;11.13;;;;;1.10;96586.00;;;;8301085;28;20251;-71
2023/01/27 18:56:53;;;;;;;26.37;10.83;;;;;1.10;96587.00;;;;8301000;28;20572;-72
2023/01/27 19:00:58;;;;;;;31.13;11.20;;;;;1.20;96592.00;;;;8300386;28;20268;-72
2023/01/27 19:05:15;;;;;;;27.13;10.53;;;;;1.20;96601.00;;;;8301097;28;20604;-72
2023/01/27 19:09:23;;;;;;;28.50;11.90;;;;;1.20;96598.00;;;;8300564;28;20552;-72
2023/01/27 19:13:27;;;;;;;30.40;11.20;;;;;1.20;96600.00;;;;8299784;28;20253;-72
2023/01/27 19:17:30;;;;;;;31.70;11.27;;;;;1.20;96594.00;;;;8299708;28;20224;-72
2023/01/27 19:21:34;;;;;;;32.03;12.83;;;;;1.20;96611.00;;;;8299973;28;20253;-72
2023/01/27 19:25:48;;;;;;;54.90;18.43;;;;;1.20;96600.00;;;;8299735;28;20197;-72
2023/01/27 19:29:53;;;;;;;36.27;12.70;;;;;1.20;96598.00;;;;8298181;28;20252;-72
2023/01/27 19:33:59;;;;;;;41.47;13.93;;;;;1.10;96602.00;;;;8283087;28;20637;-72
2023/01/27 19:38:04;;;;;;;45.20;16.37;;;;;1.10;96600.00;;;;8300086;28;20741;-72
2023/01/27 19:42:13;;;;;;;28.83;11.67;;;;;1.10;96608.00;;;;8299502;28;20340;-72
2023/01/27 19:46:22;;;;;;;38.03;13.30;;;;;1.10;96618.00;;;;8299874;28;20216;-72
2023/01/27 19:50:31;;;;;;;32.97;12.10;;;;;1.20;96627.00;;;;8299420;28;20188;-70
2023/01/27 19:54:35;;;;;;;28.70;11.03;;;;;1.10;96624.00;;;;8299546;28;20524;-70
2023/01/27 19:58:40;;;;;;;36.87;13.17;;;;;1.10;96622.00;;;;8298855;28;20228;-71
2023/01/27 20:02:54;;;;;;;32.83;12.20;;;;;1.10;96628.00;;;;8299361;28;20227;-70
2023/01/27 20:06:59;;;;;;;27.13;11.80;;;;;1.10;96630.00;;;;8299680;28;20584;-70
2023/01/27 20:11:04;;;;;;;26.03;10.07;;;;;1.10;96625.00;;;;8298295;28;20187;-69
2023/01/27 20:15:14;;;;;;;30.60;12.43;;;;;1.00;96632.00;;;;8298023;28;20189;-70
2023/01/27 20:19:24;;;;;;;34.13;11.73;;;;;1.00;96638.00;;;;8299111;28;20257;-70
2023/01/27 20:23:29;;;;;;;26.47;11.70;;;;;1.00;96636.00;;;;8299131;28;20207;-70
2023/01/27 20:27:32;;;;;;;31.27;11.73;;;;;1.00;96636.00;;;;8299463;28;20204;-70
2023/01/27 20:31:38;;;;;;;31.30;11.13;;;;;0.90;96636.00;;;;8299453;28;20645;-70
2023/01/27 20:35:41;;;;;;;32.53;12.33;;;;;0.90;96640.00;;;;8298886;28;20199;-70
2023/01/27 20:39:44;;;;;;;32.43;12.17;;;;;0.90;96637.00;;;;8298506;28;20226;-70
2023/01/27 20:43:48;;;;;;;25.90;9.63;;;;;1.00;96647.00;;;;8299508;28;20559;-69
2023/01/27 20:47:58;;;;;;;28.13;11.20;;;;;1.00;96644.00;;;;8299137;28;20620;-70
2023/01/27 20:52:01;;;;;;;29.47;11.37;;;;;1.00;96649.00;;;;8296340;28;20199;-70
2023/01/27 20:56:08;;;;;;;30.40;10.73;;;;;0.90;96645.00;;;;8299156;28;20202;-70
2023/01/27 21:00:16;;;;;;;27.07;11.27;;;;;0.90;96645.00;;;;8298289;28;20198;-69
2023/01/27 21:04:21;;;;;;;29.73;11.47;;;;;0.90;96648.00;;;;8298906;28;20226;-70
2023/01/27 21:08:26;;;;;;;32.03;12.83;;;;;1.00;96650.00;;;;8298466;28;20211;-70
2023/01/27 21:12:31;;;;;;;25.87;10.63;;;;;1.00;96661.00;;;;8298028;28;20194;-71
2023/01/27 21:16:34;;;;;;;26.83;11.03;;;;;1.00;96663.00;;;;8298879;28;20701;-70